sensor_id;sensor_type;location;lat;lon;timestamp;P1;durP1;ratioP1;P2;durP2;ratioP2
66702;SDS011;60933;46.398;-63.798;2023-12-20T00:00:10;3.80;;;1.10;;
66702;SDS011;60933;46.398;-63.798;2023-12-20T00:02:39;4.68;;;1.35;;
66702;SDS011;60933;46.398;-63.798;2023-12-20T00:05:07;4.10;;;1.30;;
66702;SDS011;60933;46.398;-63.798;2023-12-20T00:07:35;5.45;;;1.70;;
66702;SDS011;60933;46.398;-63.798;2023-12-20T00:10:04;2.28;;;1.00;;
66702;SDS011;60933;46.398;-63.798;2023-12-20T00:12:32;5.32;;;1.30;;
66702;SDS011;60933;46.398;-63.798;2023-12-20T00:15:01;4.03;;;1.45;;
66702;SDS011;60933;46.398;-63.798;2023-12-20T00:17:29;4.25;;;1.58;;
66702;SDS011;60933;46.398;-63.798;2023-12-20T00:19:58;3.45;;;1.30;;
66702;SDS011;60933;46.398;-63.798;2023-12-20T00:22:26;4.07;;;1.65;;
66702;SDS011;60933;46.398;-63.798;2023-12-20T00:24:55;4.15;;;1.50;;
66702;SDS011;60933;46.398;-63.798;2023-12-20T00:27:23;3.22;;;1.75;;
66702;SDS011;60933;46.398;-63.798;2023-12-20T00:29:52;6.38;;;1.83;;
66702;SDS011;60933;46.398;-63.798;2023-12-20T00:32:20;5.18;;;1.35;;
66702;SDS011;60933;46.398;-63.798;2023-12-20T00:34:48;4.10;;;1.33;;
66702;SDS011;60933;46.398;-63.798;2023-12-20T00:37:17;3.67;;;1.45;;
66702;SDS011;60933;46.398;-63.798;2023-12-20T00:39:45;4.50;;;2.13;;
66702;SDS011;60933;46.398;-63.798;2023-12-20T00:42:13;4.35;;;1.88;;
66702;SDS011;60933;46.398;-63.798;2023-12-20T00:44:42;1.70;;;1.50;;
66702;SDS011;60933;46.398;-63.798;2023-12-20T00:47:10;4.13;;;1.30;;
66702;SDS011;60933;46.398;-63.798;2023-12-20T00:49:38;2.17;;;1.23;;
66702;SDS011;60933;46.398;-63.798;2023-12-20T00:52:07;4.38;;;1.23;;
66702;SDS011;60933;46.398;-63.798;2023-12-20T00:54:35;3.70;;;1.40;;
66702;SDS011;60933;46.398;-63.798;2023-12-20T00:57:04;3.83;;;1.45;;
66702;SDS011;60933;46.398;-63.798;2023-12-20T00:59:32;3.55;;;1.30;;
66702;SDS011;60933;46.398;-63.798;2023-12-20T01:02:00;3.95;;;1.60;;
66702;SDS011;60933;46.398;-63.798;2023-12-20T01:04:30;3.13;;;1.00;;
66702;SDS011;60933;46.398;-63.798;2023-12-20T01:06:58;4.10;;;1.65;;
66702;SDS011;60933;46.398;-63.798;2023-12-20T01:09:26;3.20;;;1.50;;
66702;SDS011;60933;46.398;-63.798;2023-12-20T01:11:54;2.10;;;1.05;;
66702;SDS011;60933;46.398;-63.798;2023-12-20T01:14:23;2.42;;;1.48;;
66702;SDS011;60933;46.398;-63.798;2023-12-20T01:16:51;3.65;;;1.58;;
66702;SDS011;60933;46.398;-63.798;2023-12-20T01:19:19;9.05;;;3.92;;
66702;SDS011;60933;46.398;-63.798;2023-12-20T01:21:48;5.43;;;3.17;;
66702;SDS011;60933;46.398;-63.798;2023-12-20T01:24:18;12.10;;;6.82;;
66702;SDS011;60933;46.398;-63.798;2023-12-20T01:26:46;10.88;;;4.82;;
66702;SDS011;60933;46.398;-63.798;2023-12-20T01:29:17;2.67;;;1.35;;
66702;SDS011;60933;46.398;-63.798;2023-12-20T01:31:45;4.15;;;2.17;;
66702;SDS011;60933;46.398;-63.798;2023-12-20T01:34:14;4.20;;;2.80;;
66702;SDS011;60933;46.398;-63.798;2023-12-20T01:36:42;6.50;;;3.58;;
66702;SDS011;60933;46.398;-63.798;2023-12-20T01:39:10;3.67;;;2.45;;
66702;SDS011;60933;46.398;-63.798;2023-12-20T01:41:53;5.60;;;2.63;;
66702;SDS011;60933;46.398;-63.798;2023-12-20T01:44:21;4.72;;;2.33;;
66702;SDS011;60933;46.398;-63.798;2023-12-20T01:46:50;4.53;;;2.67;;
66702;SDS011;60933;46.398;-63.798;2023-12-20T01:49:19;2.25;;;1.70;;
66702;SDS011;60933;46.398;-63.798;2023-12-20T01:51:48;2.60;;;1.40;;
66702;SDS011;60933;46.398;-63.798;2023-12-20T01:54:18;2.53;;;1.60;;
66702;SDS011;60933;46.398;-63.798;2023-12-20T01:56:48;5.20;;;3.55;;
66702;SDS011;60933;46.398;-63.798;2023-12-20T01:59:18;5.97;;;2.88;;
66702;SDS011;60933;46.398;-63.798;2023-12-20T02:01:48;4.43;;;2.60;;
66702;SDS011;60933;46.398;-63.798;2023-12-20T02:04:17;3.35;;;2.15;;
66702;SDS011;60933;46.398;-63.798;2023-12-20T02:06:46;4.60;;;1.70;;
66702;SDS011;60933;46.398;-63.798;2023-12-20T02:09:14;3.00;;;0.75;;
66702;SDS011;60933;46.398;-63.798;2023-12-20T02:11:43;2.53;;;1.23;;
66702;SDS011;60933;46.398;-63.798;2023-12-20T02:14:11;3.67;;;1.13;;
66702;SDS011;60933;46.398;-63.798;2023-12-20T02:16:42;4.13;;;0.77;;
66702;SDS011;60933;46.398;-63.798;2023-12-20T02:19:14;2.92;;;0.95;;
66702;SDS011;60933;46.398;-63.798;2023-12-20T02:22:04;4.28;;;1.40;;
66702;SDS011;60933;46.398;-63.798;2023-12-20T02:24:34;5.00;;;1.60;;
66702;SDS011;60933;46.398;-63.798;2023-12-20T02:27:02;1.85;;;1.20;;
66702;SDS011;60933;46.398;-63.798;2023-12-20T02:29:33;3.17;;;1.13;;
66702;SDS011;60933;46.398;-63.798;2023-12-20T02:32:02;2.47;;;1.63;;
66702;SDS011;60933;46.398;-63.798;2023-12-20T02:34:30;2.00;;;1.30;;
66702;SDS011;60933;46.398;-63.798;2023-12-20T02:36:58;3.08;;;1.45;;
66702;SDS011;60933;46.398;-63.798;2023-12-20T02:39:27;1.42;;;1.27;;
66702;SDS011;60933;46.398;-63.798;2023-12-20T02:41:55;1.67;;;1.20;;
66702;SDS011;60933;46.398;-63.798;2023-12-20T02:44:23;2.78;;;0.93;;
66702;SDS011;60933;46.398;-63.798;2023-12-20T02:46:51;1.52;;;1.08;;
66702;SDS011;60933;46.398;-63.798;2023-12-20T02:49:19;2.88;;;1.17;;
66702;SDS011;60933;46.398;-63.798;2023-12-20T02:51:48;1.65;;;1.10;;
66702;SDS011;60933;46.398;-63.798;2023-12-20T02:54:16;4.30;;;1.40;;
66702;SDS011;60933;46.398;-63.798;2023-12-20T02:56:45;2.40;;;1.10;;
66702;SDS011;60933;46.398;-63.798;2023-12-20T02:59:13;1.45;;;1.15;;
66702;SDS011;60933;46.398;-63.798;2023-12-20T03:01:42;1.85;;;1.25;;
66702;SDS011;60933;46.398;-63.798;2023-12-20T03:04:12;2.33;;;1.10;;
66702;SDS011;60933;46.398;-63.798;2023-12-20T03:06:40;2.60;;;0.70;;
66702;SDS011;60933;46.398;-63.798;2023-12-20T03:09:08;3.75;;;1.25;;
66702;SDS011;60933;46.398;-63.798;2023-12-20T03:11:37;1.63;;;1.20;;
66702;SDS011;60933;46.398;-63.798;2023-12-20T03:14:05;3.20;;;1.75;;
66702;SDS011;60933;46.398;-63.798;2023-12-20T03:16:33;1.63;;;1.50;;
66702;SDS011;60933;46.398;-63.798;2023-12-20T03:19:02;1.23;;;1.13;;
66702;SDS011;60933;46.398;-63.798;2023-12-20T03:21:31;3.95;;;1.20;;
66702;SDS011;60933;46.398;-63.798;2023-12-20T03:23:59;1.63;;;1.52;;
66702;SDS011;60933;46.398;-63.798;2023-12-20T03:26:27;1.88;;;0.88;;
66702;SDS011;60933;46.398;-63.798;2023-12-20T03:28:55;1.95;;;1.55;;
66702;SDS011;60933;46.398;-63.798;2023-12-20T03:31:23;1.85;;;0.80;;
66702;SDS011;60933;46.398;-63.798;2023-12-20T03:33:51;3.92;;;1.60;;
66702;SDS011;60933;46.398;-63.798;2023-12-20T03:36:21;2.25;;;0.70;;
66702;SDS011;60933;46.398;-63.798;2023-12-20T03:38:49;5.10;;;1.45;;
66702;SDS011;60933;46.398;-63.798;2023-12-20T03:41:17;2.17;;;1.38;;
66702;SDS011;60933;46.398;-63.798;2023-12-20T03:43:45;2.00;;;1.48;;
66702;SDS011;60933;46.398;-63.798;2023-12-20T03:46:13;1.00;;;0.50;;
66702;SDS011;60933;46.398;-63.798;2023-12-20T03:48:42;4.70;;;1.52;;
66702;SDS011;60933;46.398;-63.798;2023-12-20T03:51:10;1.48;;;1.38;;
66702;SDS011;60933;46.398;-63.798;2023-12-20T03:53:38;1.40;;;1.30;;
66702;SDS011;60933;46.398;-63.798;2023-12-20T03:56:07;2.03;;;1.73;;
66702;SDS011;60933;46.398;-63.798;2023-12-20T03:58:36;3.33;;;1.40;;
66702;SDS011;60933;46.398;-63.798;2023-12-20T04:01:08;1.77;;;1.40;;
66702;SDS011;60933;46.398;-63.798;2023-12-20T04:03:39;2.10;;;1.17;;
66702;SDS011;60933;46.398;-63.798;2023-12-20T04:06:07;1.42;;;1.00;;
66702;SDS011;60933;46.398;-63.798;2023-12-20T04:08:35;3.78;;;1.20;;
66702;SDS011;60933;46.398;-63.798;2023-12-20T04:11:04;2.58;;;1.17;;
66702;SDS011;60933;46.398;-63.798;2023-12-20T04:13:32;2.40;;;1.23;;
66702;SDS011;60933;46.398;-63.798;2023-12-20T04:16:00;4.25;;;1.80;;
66702;SDS011;60933;46.398;-63.798;2023-12-20T04:18:28;4.28;;;1.50;;
66702;SDS011;60933;46.398;-63.798;2023-12-20T04:20:56;4.97;;;1.45;;
66702;SDS011;60933;46.398;-63.798;2023-12-20T04:23:24;2.17;;;1.63;;
66702;SDS011;60933;46.398;-63.798;2023-12-20T04:25:53;3.47;;;1.42;;
66702;SDS011;60933;46.398;-63.798;2023-12-20T04:28:21;3.75;;;1.52;;
66702;SDS011;60933;46.398;-63.798;2023-12-20T04:30:49;3.40;;;1.50;;
66702;SDS011;60933;46.398;-63.798;2023-12-20T04:33:18;1.35;;;1.20;;
66702;SDS011;60933;46.398;-63.798;2023-12-20T04:35:46;1.95;;;1.70;;
66702;SDS011;60933;46.398;-63.798;2023-12-20T04:38:14;1.95;;;1.20;;
66702;SDS011;60933;46.398;-63.798;2023-12-20T04:40:42;1.48;;;1.38;;
66702;SDS011;60933;46.398;-63.798;2023-12-20T04:43:10;4.43;;;1.73;;
66702;SDS011;60933;46.398;-63.798;2023-12-20T04:45:38;1.42;;;1.20;;
66702;SDS011;60933;46.398;-63.798;2023-12-20T04:48:06;1.55;;;1.20;;
66702;SDS011;60933;46.398;-63.798;2023-12-20T04:50:35;2.03;;;1.10;;
66702;SDS011;60933;46.398;-63.798;2023-12-20T04:53:03;2.25;;;1.67;;
66702;SDS011;60933;46.398;-63.798;2023-12-20T04:55:31;3.05;;;1.20;;
66702;SDS011;60933;46.398;-63.798;2023-12-20T04:57:59;1.67;;;1.10;;
66702;SDS011;60933;46.398;-63.798;2023-12-20T05:00:27;1.40;;;1.30;;
66702;SDS011;60933;46.398;-63.798;2023-12-20T05:02:56;3.80;;;1.20;;
66702;SDS011;60933;46.398;-63.798;2023-12-20T05:05:24;2.88;;;1.70;;
66702;SDS011;60933;46.398;-63.798;2023-12-20T05:07:52;3.30;;;1.15;;
66702;SDS011;60933;46.398;-63.798;2023-12-20T05:10:20;3.05;;;1.35;;
66702;SDS011;60933;46.398;-63.798;2023-12-20T05:12:48;2.75;;;1.77;;
66702;SDS011;60933;46.398;-63.798;2023-12-20T05:15:16;3.35;;;1.15;;
66702;SDS011;60933;46.398;-63.798;2023-12-20T05:17:45;3.97;;;1.63;;
66702;SDS011;60933;46.398;-63.798;2023-12-20T05:20:13;1.67;;;1.55;;
66702;SDS011;60933;46.398;-63.798;2023-12-20T05:22:42;3.55;;;1.10;;
66702;SDS011;60933;46.398;-63.798;2023-12-20T05:25:10;1.70;;;1.23;;
66702;SDS011;60933;46.398;-63.798;2023-12-20T05:27:39;3.40;;;1.77;;
66702;SDS011;60933;46.398;-63.798;2023-12-20T05:30:07;2.08;;;0.98;;
66702;SDS011;60933;46.398;-63.798;2023-12-20T05:32:36;2.97;;;1.10;;
66702;SDS011;60933;46.398;-63.798;2023-12-20T05:35:04;2.10;;;1.00;;
66702;SDS011;60933;46.398;-63.798;2023-12-20T05:37:32;3.22;;;1.63;;
66702;SDS011;60933;46.398;-63.798;2023-12-20T05:40:00;1.98;;;1.40;;
66702;SDS011;60933;46.398;-63.798;2023-12-20T05:42:29;2.10;;;1.25;;
66702;SDS011;60933;46.398;-63.798;2023-12-20T05:44:57;3.35;;;1.27;;
66702;SDS011;60933;46.398;-63.798;2023-12-20T05:47:25;4.43;;;2.45;;
66702;SDS011;60933;46.398;-63.798;2023-12-20T05:49:53;3.40;;;0.90;;
66702;SDS011;60933;46.398;-63.798;2023-12-20T05:52:21;3.33;;;1.63;;
66702;SDS011;60933;46.398;-63.798;2023-12-20T05:54:49;3.72;;;2.20;;
66702;SDS011;60933;46.398;-63.798;2023-12-20T05:57:18;2.47;;;1.77;;
66702;SDS011;60933;46.398;-63.798;2023-12-20T05:59:46;5.18;;;2.30;;
66702;SDS011;60933;46.398;-63.798;2023-12-20T06:02:14;4.45;;;2.40;;
66702;SDS011;60933;46.398;-63.798;2023-12-20T06:04:42;4.65;;;2.50;;
66702;SDS011;60933;46.398;-63.798;2023-12-20T06:07:14;7.60;;;2.58;;
66702;SDS011;60933;46.398;-63.798;2023-12-20T06:09:43;6.05;;;2.40;;
66702;SDS011;60933;46.398;-63.798;2023-12-20T06:12:11;4.07;;;2.42;;
66702;SDS011;60933;46.398;-63.798;2023-12-20T06:14:39;4.20;;;2.30;;
66702;SDS011;60933;46.398;-63.798;2023-12-20T06:17:07;10.80;;;2.22;;
66702;SDS011;60933;46.398;-63.798;2023-12-20T06:19:35;5.30;;;2.28;;
66702;SDS011;60933;46.398;-63.798;2023-12-20T06:22:03;2.75;;;1.77;;
66702;SDS011;60933;46.398;-63.798;2023-12-20T06:24:32;5.53;;;2.47;;
66702;SDS011;60933;46.398;-63.798;2023-12-20T06:27:01;4.05;;;1.77;;
66702;SDS011;60933;46.398;-63.798;2023-12-20T06:29:29;3.33;;;2.10;;
66702;SDS011;60933;46.398;-63.798;2023-12-20T06:31:58;5.45;;;1.83;;
66702;SDS011;60933;46.398;-63.798;2023-12-20T06:34:26;2.53;;;1.40;;
66702;SDS011;60933;46.398;-63.798;2023-12-20T06:36:54;4.50;;;2.22;;
66702;SDS011;60933;46.398;-63.798;2023-12-20T06:39:23;3.28;;;1.45;;
66702;SDS011;60933;46.398;-63.798;2023-12-20T06:41:51;5.70;;;2.28;;
66702;SDS011;60933;46.398;-63.798;2023-12-20T06:44:19;6.95;;;2.80;;
66702;SDS011;60933;46.398;-63.798;2023-12-20T06:46:47;6.10;;;1.92;;
66702;SDS011;60933;46.398;-63.798;2023-12-20T06:49:15;3.53;;;1.95;;
66702;SDS011;60933;46.398;-63.798;2023-12-20T06:51:43;2.92;;;1.40;;
66702;SDS011;60933;46.398;-63.798;2023-12-20T06:54:11;3.67;;;1.75;;
66702;SDS011;60933;46.398;-63.798;2023-12-20T06:56:39;2.22;;;1.20;;
66702;SDS011;60933;46.398;-63.798;2023-12-20T06:59:08;1.20;;;1.10;;
66702;SDS011;60933;46.398;-63.798;2023-12-20T07:01:36;3.45;;;1.52;;
66702;SDS011;60933;46.398;-63.798;2023-12-20T07:04:05;4.30;;;1.95;;
66702;SDS011;60933;46.398;-63.798;2023-12-20T07:06:33;3.08;;;1.95;;
66702;SDS011;60933;46.398;-63.798;2023-12-20T07:09:01;3.33;;;1.67;;
66702;SDS011;60933;46.398;-63.798;2023-12-20T07:11:29;2.35;;;1.55;;
66702;SDS011;60933;46.398;-63.798;2023-12-20T07:13:57;2.90;;;1.88;;
66702;SDS011;60933;46.398;-63.798;2023-12-20T07:16:25;5.82;;;2.70;;
66702;SDS011;60933;46.398;-63.798;2023-12-20T07:18:53;7.25;;;2.22;;
66702;SDS011;60933;46.398;-63.798;2023-12-20T07:21:21;7.45;;;2.85;;
66702;SDS011;60933;46.398;-63.798;2023-12-20T07:23:50;8.82;;;2.55;;
66702;SDS011;60933;46.398;-63.798;2023-12-20T07:26:18;9.57;;;2.60;;
66702;SDS011;60933;46.398;-63.798;2023-12-20T07:28:46;8.95;;;2.70;;
66702;SDS011;60933;46.398;-63.798;2023-12-20T07:31:18;11.23;;;2.92;;
66702;SDS011;60933;46.398;-63.798;2023-12-20T07:33:46;10.18;;;3.00;;
66702;SDS011;60933;46.398;-63.798;2023-12-20T07:36:14;5.97;;;3.55;;
66702;SDS011;60933;46.398;-63.798;2023-12-20T07:38:43;6.53;;;2.22;;
66702;SDS011;60933;46.398;-63.798;2023-12-20T07:41:11;8.70;;;2.55;;
66702;SDS011;60933;46.398;-63.798;2023-12-20T07:43:39;11.60;;;2.88;;
66702;SDS011;60933;46.398;-63.798;2023-12-20T07:46:11;10.27;;;2.95;;
66702;SDS011;60933;46.398;-63.798;2023-12-20T07:48:39;8.25;;;2.60;;
66702;SDS011;60933;46.398;-63.798;2023-12-20T07:51:11;9.88;;;2.30;;
66702;SDS011;60933;46.398;-63.798;2023-12-20T07:53:39;4.90;;;2.63;;
66702;SDS011;60933;46.398;-63.798;2023-12-20T07:56:17;10.60;;;2.92;;
66702;SDS011;60933;46.398;-63.798;2023-12-20T07:58:46;7.18;;;3.03;;
66702;SDS011;60933;46.398;-63.798;2023-12-20T08:01:19;9.80;;;3.05;;
66702;SDS011;60933;46.398;-63.798;2023-12-20T08:03:49;10.57;;;3.25;;
66702;SDS011;60933;46.398;-63.798;2023-12-20T08:06:18;13.45;;;3.05;;
66702;SDS011;60933;46.398;-63.798;2023-12-20T08:08:46;9.60;;;2.75;;
66702;SDS011;60933;46.398;-63.798;2023-12-20T08:11:26;6.65;;;2.97;;
66702;SDS011;60933;46.398;-63.798;2023-12-20T08:13:55;9.68;;;2.30;;
66702;SDS011;60933;46.398;-63.798;2023-12-20T08:16:23;10.00;;;2.22;;
66702;SDS011;60933;46.398;-63.798;2023-12-20T08:18:51;9.32;;;2.13;;
66702;SDS011;60933;46.398;-63.798;2023-12-20T08:21:19;10.93;;;2.88;;
66702;SDS011;60933;46.398;-63.798;2023-12-20T08:23:49;6.30;;;3.00;;
66702;SDS011;60933;46.398;-63.798;2023-12-20T08:26:20;9.07;;;2.90;;
66702;SDS011;60933;46.398;-63.798;2023-12-20T08:28:50;5.85;;;2.67;;
66702;SDS011;60933;46.398;-63.798;2023-12-20T08:31:18;4.68;;;2.20;;
66702;SDS011;60933;46.398;-63.798;2023-12-20T08:33:47;7.72;;;2.08;;
66702;SDS011;60933;46.398;-63.798;2023-12-20T08:36:16;8.15;;;2.55;;
66702;SDS011;60933;46.398;-63.798;2023-12-20T08:38:45;4.78;;;2.28;;
66702;SDS011;60933;46.398;-63.798;2023-12-20T08:41:13;6.55;;;2.17;;
66702;SDS011;60933;46.398;-63.798;2023-12-20T08:43:41;7.78;;;2.83;;
66702;SDS011;60933;46.398;-63.798;2023-12-20T08:46:09;7.47;;;2.55;;
66702;SDS011;60933;46.398;-63.798;2023-12-20T08:48:37;6.78;;;2.67;;
66702;SDS011;60933;46.398;-63.798;2023-12-20T08:51:06;6.43;;;2.17;;
66702;SDS011;60933;46.398;-63.798;2023-12-20T08:53:36;7.05;;;2.13;;
66702;SDS011;60933;46.398;-63.798;2023-12-20T08:56:04;7.93;;;2.58;;
66702;SDS011;60933;46.398;-63.798;2023-12-20T08:58:32;7.60;;;1.88;;
66702;SDS011;60933;46.398;-63.798;2023-12-20T09:01:03;5.70;;;2.15;;
66702;SDS011;60933;46.398;-63.798;2023-12-20T09:03:31;5.05;;;1.73;;
66702;SDS011;60933;46.398;-63.798;2023-12-20T09:05:59;6.15;;;2.80;;
66702;SDS011;60933;46.398;-63.798;2023-12-20T09:08:28;5.20;;;1.95;;
66702;SDS011;60933;46.398;-63.798;2023-12-20T09:10:56;7.95;;;1.83;;
66702;SDS011;60933;46.398;-63.798;2023-12-20T09:13:24;7.55;;;2.03;;
66702;SDS011;60933;46.398;-63.798;2023-12-20T09:15:55;5.55;;;2.33;;
66702;SDS011;60933;46.398;-63.798;2023-12-20T09:18:24;3.20;;;1.75;;
66702;SDS011;60933;46.398;-63.798;2023-12-20T09:20:52;6.07;;;1.90;;
66702;SDS011;60933;46.398;-63.798;2023-12-20T09:23:22;4.80;;;1.95;;
66702;SDS011;60933;46.398;-63.798;2023-12-20T09:25:50;5.97;;;1.95;;
66702;SDS011;60933;46.398;-63.798;2023-12-20T09:28:23;4.38;;;1.92;;
66702;SDS011;60933;46.398;-63.798;2023-12-20T09:30:51;3.13;;;1.77;;
66702;SDS011;60933;46.398;-63.798;2023-12-20T09:33:19;3.90;;;1.73;;
66702;SDS011;60933;46.398;-63.798;2023-12-20T09:35:47;6.45;;;1.85;;
66702;SDS011;60933;46.398;-63.798;2023-12-20T09:38:16;6.45;;;1.77;;
66702;SDS011;60933;46.398;-63.798;2023-12-20T09:40:44;5.75;;;1.80;;
66702;SDS011;60933;46.398;-63.798;2023-12-20T09:43:20;4.18;;;1.63;;
66702;SDS011;60933;46.398;-63.798;2023-12-20T09:46:02;2.30;;;1.58;;
66702;SDS011;60933;46.398;-63.798;2023-12-20T09:48:34;7.28;;;1.85;;
66702;SDS011;60933;46.398;-63.798;2023-12-20T09:51:04;6.78;;;2.08;;
66702;SDS011;60933;46.398;-63.798;2023-12-20T09:53:33;3.65;;;1.85;;
66702;SDS011;60933;46.398;-63.798;2023-12-20T09:56:04;3.75;;;1.85;;
66702;SDS011;60933;46.398;-63.798;2023-12-20T09:58:36;5.78;;;1.73;;
66702;SDS011;60933;46.398;-63.798;2023-12-20T10:01:08;3.63;;;1.58;;
66702;SDS011;60933;46.398;-63.798;2023-12-20T10:03:37;5.55;;;2.05;;
66702;SDS011;60933;46.398;-63.798;2023-12-20T10:06:08;3.40;;;1.92;;
66702;SDS011;60933;46.398;-63.798;2023-12-20T10:08:38;5.03;;;2.20;;
66702;SDS011;60933;46.398;-63.798;2023-12-20T10:11:06;4.70;;;1.65;;
66702;SDS011;60933;46.398;-63.798;2023-12-20T10:13:37;3.28;;;1.13;;
66702;SDS011;60933;46.398;-63.798;2023-12-20T10:16:10;3.65;;;1.73;;
66702;SDS011;60933;46.398;-63.798;2023-12-20T10:18:38;2.55;;;1.55;;
66702;SDS011;60933;46.398;-63.798;2023-12-20T10:21:07;3.63;;;1.70;;
66702;SDS011;60933;46.398;-63.798;2023-12-20T10:23:37;3.45;;;1.70;;
66702;SDS011;60933;46.398;-63.798;2023-12-20T10:26:06;2.38;;;1.73;;
66702;SDS011;60933;46.398;-63.798;2023-12-20T10:28:35;1.30;;;0.77;;
66702;SDS011;60933;46.398;-63.798;2023-12-20T10:31:04;2.38;;;1.80;;
66702;SDS011;60933;46.398;-63.798;2023-12-20T10:33:32;1.23;;;1.13;;
66702;SDS011;60933;46.398;-63.798;2023-12-20T10:36:01;2.50;;;1.10;;
66702;SDS011;60933;46.398;-63.798;2023-12-20T10:38:30;2.00;;;1.13;;
66702;SDS011;60933;46.398;-63.798;2023-12-20T10:40:58;2.03;;;1.83;;
66702;SDS011;60933;46.398;-63.798;2023-12-20T10:43:29;2.95;;;1.52;;
66702;SDS011;60933;46.398;-63.798;2023-12-20T10:45:59;5.47;;;1.33;;
66702;SDS011;60933;46.398;-63.798;2023-12-20T10:48:30;3.28;;;1.23;;
66702;SDS011;60933;46.398;-63.798;2023-12-20T10:50:59;3.92;;;1.33;;
66702;SDS011;60933;46.398;-63.798;2023-12-20T10:53:29;3.47;;;1.23;;
66702;SDS011;60933;46.398;-63.798;2023-12-20T10:55:58;3.95;;;2.03;;
66702;SDS011;60933;46.398;-63.798;2023-12-20T10:58:30;1.63;;;1.25;;
66702;SDS011;60933;46.398;-63.798;2023-12-20T11:01:01;4.32;;;1.48;;
66702;SDS011;60933;46.398;-63.798;2023-12-20T11:03:32;5.38;;;1.17;;
66702;SDS011;60933;46.398;-63.798;2023-12-20T11:06:12;3.97;;;1.52;;
66702;SDS011;60933;46.398;-63.798;2023-12-20T11:08:51;2.60;;;1.25;;
66702;SDS011;60933;46.398;-63.798;2023-12-20T11:11:23;3.22;;;1.30;;
66702;SDS011;60933;46.398;-63.798;2023-12-20T11:14:04;3.45;;;1.42;;
66702;SDS011;60933;46.398;-63.798;2023-12-20T11:16:36;5.28;;;2.35;;
66702;SDS011;60933;46.398;-63.798;2023-12-20T11:19:17;2.30;;;1.13;;
66702;SDS011;60933;46.398;-63.798;2023-12-20T11:21:46;3.72;;;1.30;;
66702;SDS011;60933;46.398;-63.798;2023-12-20T11:24:15;3.22;;;1.63;;
66702;SDS011;60933;46.398;-63.798;2023-12-20T11:26:47;3.33;;;2.00;;
66702;SDS011;60933;46.398;-63.798;2023-12-20T11:29:34;2.80;;;2.08;;
66702;SDS011;60933;46.398;-63.798;2023-12-20T11:32:27;2.42;;;1.65;;
66702;SDS011;60933;46.398;-63.798;2023-12-20T11:34:59;7.57;;;2.47;;
66702;SDS011;60933;46.398;-63.798;2023-12-20T11:37:36;6.07;;;1.65;;
66702;SDS011;60933;46.398;-63.798;2023-12-20T11:40:11;2.95;;;0.88;;
66702;SDS011;60933;46.398;-63.798;2023-12-20T11:42:42;4.32;;;1.35;;
66702;SDS011;60933;46.398;-63.798;2023-12-20T11:45:20;2.65;;;1.40;;
66702;SDS011;60933;46.398;-63.798;2023-12-20T11:47:54;3.55;;;1.95;;
66702;SDS011;60933;46.398;-63.798;2023-12-20T11:50:25;2.92;;;1.42;;
66702;SDS011;60933;46.398;-63.798;2023-12-20T11:52:54;3.10;;;1.30;;
66702;SDS011;60933;46.398;-63.798;2023-12-20T11:55:23;2.03;;;1.52;;
66702;SDS011;60933;46.398;-63.798;2023-12-20T11:57:52;2.10;;;1.20;;
66702;SDS011;60933;46.398;-63.798;2023-12-20T12:00:21;1.40;;;1.10;;
66702;SDS011;60933;46.398;-63.798;2023-12-20T12:02:56;2.15;;;1.02;;
66702;SDS011;60933;46.398;-63.798;2023-12-20T12:05:30;2.88;;;1.20;;
66702;SDS011;60933;46.398;-63.798;2023-12-20T12:07:59;1.52;;;1.33;;
66702;SDS011;60933;46.398;-63.798;2023-12-20T12:10:28;2.35;;;1.05;;
66702;SDS011;60933;46.398;-63.798;2023-12-20T12:12:57;4.13;;;1.48;;
66702;SDS011;60933;46.398;-63.798;2023-12-20T12:15:25;3.70;;;1.52;;
66702;SDS011;60933;46.398;-63.798;2023-12-20T12:17:54;3.42;;;1.33;;
66702;SDS011;60933;46.398;-63.798;2023-12-20T12:20:23;3.47;;;1.30;;
66702;SDS011;60933;46.398;-63.798;2023-12-20T12:22:58;2.60;;;1.10;;
66702;SDS011;60933;46.398;-63.798;2023-12-20T12:25:28;1.63;;;1.20;;
66702;SDS011;60933;46.398;-63.798;2023-12-20T12:27:58;3.40;;;1.25;;
66702;SDS011;60933;46.398;-63.798;2023-12-20T12:30:27;2.25;;;1.20;;
66702;SDS011;60933;46.398;-63.798;2023-12-20T12:33:04;2.42;;;1.35;;
66702;SDS011;60933;46.398;-63.798;2023-12-20T12:35:33;1.63;;;1.10;;
66702;SDS011;60933;46.398;-63.798;2023-12-20T12:38:02;2.28;;;1.00;;
66702;SDS011;60933;46.398;-63.798;2023-12-20T12:40:30;3.70;;;1.10;;
66702;SDS011;60933;46.398;-63.798;2023-12-20T12:43:03;1.90;;;1.50;;
66702;SDS011;60933;46.398;-63.798;2023-12-20T12:45:33;1.85;;;1.08;;
66702;SDS011;60933;46.398;-63.798;2023-12-20T12:48:01;3.85;;;1.40;;
66702;SDS011;60933;46.398;-63.798;2023-12-20T12:50:30;2.03;;;1.45;;
66702;SDS011;60933;46.398;-63.798;2023-12-20T12:52:59;1.48;;;1.05;;
66702;SDS011;60933;46.398;-63.798;2023-12-20T12:55:27;2.83;;;1.60;;
66702;SDS011;60933;46.398;-63.798;2023-12-20T12:57:55;2.50;;;1.25;;
66702;SDS011;60933;46.398;-63.798;2023-12-20T13:00:23;1.70;;;1.30;;
66702;SDS011;60933;46.398;-63.798;2023-12-20T13:02:53;3.95;;;1.77;;
66702;SDS011;60933;46.398;-63.798;2023-12-20T13:05:21;3.35;;;1.35;;
66702;SDS011;60933;46.398;-63.798;2023-12-20T13:07:49;2.47;;;0.52;;
66702;SDS011;60933;46.398;-63.798;2023-12-20T13:10:18;2.63;;;1.35;;
66702;SDS011;60933;46.398;-63.798;2023-12-20T13:12:46;2.05;;;1.42;;
66702;SDS011;60933;46.398;-63.798;2023-12-20T13:15:14;3.20;;;1.50;;
66702;SDS011;60933;46.398;-63.798;2023-12-20T13:17:45;3.25;;;1.45;;
66702;SDS011;60933;46.398;-63.798;2023-12-20T13:20:14;3.65;;;1.88;;
66702;SDS011;60933;46.398;-63.798;2023-12-20T13:22:43;2.65;;;1.75;;
66702;SDS011;60933;46.398;-63.798;2023-12-20T13:25:11;4.72;;;1.55;;
66702;SDS011;60933;46.398;-63.798;2023-12-20T13:27:40;3.50;;;1.25;;
66702;SDS011;60933;46.398;-63.798;2023-12-20T13:30:09;2.17;;;1.33;;
66702;SDS011;60933;46.398;-63.798;2023-12-20T13:32:37;7.22;;;0.88;;
66702;SDS011;60933;46.398;-63.798;2023-12-20T13:35:06;3.88;;;1.42;;
66702;SDS011;60933;46.398;-63.798;2023-12-20T13:37:34;2.65;;;1.15;;
66702;SDS011;60933;46.398;-63.798;2023-12-20T13:40:03;5.30;;;1.40;;
66702;SDS011;60933;46.398;-63.798;2023-12-20T13:42:31;2.75;;;1.40;;
66702;SDS011;60933;46.398;-63.798;2023-12-20T13:45:00;3.92;;;1.30;;
66702;SDS011;60933;46.398;-63.798;2023-12-20T13:47:28;2.58;;;1.65;;
66702;SDS011;60933;46.398;-63.798;2023-12-20T13:49:56;3.63;;;1.27;;
66702;SDS011;60933;46.398;-63.798;2023-12-20T13:52:24;1.70;;;1.00;;
66702;SDS011;60933;46.398;-63.798;2023-12-20T13:54:53;1.75;;;1.30;;
66702;SDS011;60933;46.398;-63.798;2023-12-20T13:57:21;4.13;;;1.75;;
66702;SDS011;60933;46.398;-63.798;2023-12-20T14:00:09;2.08;;;1.30;;
66702;SDS011;60933;46.398;-63.798;2023-12-20T14:02:41;4.05;;;1.45;;
66702;SDS011;60933;46.398;-63.798;2023-12-20T14:05:10;1.58;;;1.45;;
66702;SDS011;60933;46.398;-63.798;2023-12-20T14:07:38;2.92;;;1.02;;
66702;SDS011;60933;46.398;-63.798;2023-12-20T14:10:07;2.75;;;1.63;;
66702;SDS011;60933;46.398;-63.798;2023-12-20T14:12:35;2.38;;;1.80;;
66702;SDS011;60933;46.398;-63.798;2023-12-20T14:15:05;2.97;;;1.58;;
66702;SDS011;60933;46.398;-63.798;2023-12-20T14:17:38;4.72;;;1.60;;
66702;SDS011;60933;46.398;-63.798;2023-12-20T14:20:07;1.83;;;1.42;;
66702;SDS011;60933;46.398;-63.798;2023-12-20T14:22:35;3.50;;;1.95;;
66702;SDS011;60933;46.398;-63.798;2023-12-20T14:25:06;4.70;;;1.27;;
66702;SDS011;60933;46.398;-63.798;2023-12-20T14:27:34;3.22;;;1.38;;
66702;SDS011;60933;46.398;-63.798;2023-12-20T14:30:02;2.47;;;1.52;;
66702;SDS011;60933;46.398;-63.798;2023-12-20T14:32:31;4.72;;;1.80;;